Time;durP1;ratioP1;P1;durP2;ratioP2;P2;SDS_P1;SDS_P2;PMS_P1;PMS_P2;Temp;Humidity;BMP_temperature;BMP_pressure;BME280_temperature;BME280_humidity;BME280_pressure;Samples;Min_cycle;Max_cycle;Signal;HPM_P1;HPM_P2
2023/10/08 00:02:11;;;;;;;;;;;16.70;67.40;;;;;;7617230;19;19926;-80
2023/10/08 00:04:44;;;;;;;;;;;16.80;67.40;;;;;;7610920;19;19925;-79
2023/10/08 00:07:21;;;;;;;;;;;16.70;67.20;;;;;;7610137;19;19926;-81
2023/10/08 00:10:06;;;;;;;;;;;16.80;66.90;;;;;;7613209;19;19996;-80
2023/10/08 00:12:38;;;;;;;;;;;17.20;66.60;;;;;;7596084;19;19946;-80
2023/10/08 00:15:10;;;;;;;;;;;16.90;66.30;;;;;;7616481;19;19927;-79
2023/10/08 00:17:45;;;;;;;;;;;17.00;66.00;;;;;;7609170;19;19926;-80
2023/10/08 00:20:25;;;;;;;;;;;17.10;65.60;;;;;;7607753;19;19918;-79
2023/10/08 00:22:58;;;;;;;;;;;17.10;65.50;;;;;;7623071;19;19932;-80
2023/10/08 00:25:33;;;;;;;;;;;17.60;65.50;;;;;;7619721;19;19922;-82
2023/10/08 00:28:10;;;;;;;;;;;17.40;65.70;;;;;;7612872;19;19979;-82
2023/10/08 00:30:42;;;;;;;;;;;17.40;64.90;;;;;;7610229;19;20380;-83
2023/10/08 00:33:15;;;;;;;;;;;17.30;65.20;;;;;;7616557;19;20427;-83
2023/10/08 00:35:47;;;;;;;;;;;17.30;65.10;;;;;;7620348;19;19918;-83
2023/10/08 00:38:20;;;;;;;;;;;17.30;65.40;;;;;;7591735;19;19930;-82
2023/10/08 00:40:55;;;;;;;;;;;17.40;65.40;;;;;;7608197;19;19923;-80
2023/10/08 00:43:33;;;;;;;;;;;17.50;65.40;;;;;;7602317;19;20485;-80
2023/10/08 00:46:21;;;;;;;;;;;17.50;65.20;;;;;;7615033;19;19938;-81
2023/10/08 00:48:54;;;;;;;;;;;17.50;65.50;;;;;;7626017;19;19910;-80
2023/10/08 00:51:30;;;;;;;;;;;17.50;65.70;;;;;;7626968;19;19926;-80
2023/10/08 00:54:06;;;;;;;;;;;17.80;65.80;;;;;;7602866;19;20360;-81
2023/10/08 00:57:13;;;;;;;;;;;17.50;66.00;;;;;;7607442;19;19925;-81
2023/10/08 00:59:44;;;;;;;;;;;17.60;66.10;;;;;;7611042;19;19957;-81
2023/10/08 01:02:19;;;;;;;;;;;17.80;66.20;;;;;;7614326;19;19962;-82
2023/10/08 01:04:52;;;;;;;;;;;17.50;66.40;;;;;;7603995;19;19921;-81
2023/10/08 01:07:25;;;;;;;;;;;17.60;66.40;;;;;;7603390;19;20002;-82
2023/10/08 01:10:04;;;;;;;;;;;17.30;66.30;;;;;;7609044;19;19919;-81
2023/10/08 01:12:49;;;;;;;;;;;17.60;66.80;;;;;;7609330;19;20011;-82
2023/10/08 01:15:28;;;;;;;;;;;17.60;66.90;;;;;;7610173;19;20033;-79
2023/10/08 01:18:04;;;;;;;;;;;17.60;67.20;;;;;;7604245;19;19927;-79
2023/10/08 01:20:37;;;;;;;;;;;17.60;67.10;;;;;;7591944;19;19918;-82
2023/10/08 01:23:10;;;;;;;;;;;17.60;67.20;;;;;;7588367;19;19931;-81
2023/10/08 01:25:43;;;;;;;;;;;17.70;67.20;;;;;;7608373;19;19950;-81
2023/10/08 01:28:25;;;;;;;;;;;17.70;67.10;;;;;;7612279;19;19939;-80
2023/10/08 01:31:03;;;;;;;;;;;17.70;68.00;;;;;;7608253;19;19922;-81
2023/10/08 01:33:46;;;;;;;;;;;17.70;67.50;;;;;;7608687;19;19917;-81
2023/10/08 01:36:18;;;;;;;;;;;17.70;67.60;;;;;;7596196;19;20212;-81
2023/10/08 01:38:51;;;;;;;;;;;17.80;67.40;;;;;;7590926;19;20081;-81
2023/10/08 01:41:30;;;;;;;;;;;17.80;67.90;;;;;;7598544;19;19938;-80
2023/10/08 01:44:07;;;;;;;;;;;17.80;67.70;;;;;;7594731;19;20845;-82
2023/10/08 01:46:40;;;;;;;;;;;17.80;67.30;;;;;;7587590;19;19918;-81
2023/10/08 01:49:14;;;;;;;;;;;17.80;67.50;;;;;;7595398;19;19935;-80
2023/10/08 01:51:47;;;;;;;;;;;17.90;67.40;;;;;;7594731;19;19919;-79
2023/10/08 01:54:21;;;;;;;;;;;17.90;67.30;;;;;;7594763;19;19923;-80
2023/10/08 01:56:53;;;;;;;;;;;17.90;67.20;;;;;;7569903;19;19919;-80
2023/10/08 01:59:30;;;;;;;;;;;17.80;66.90;;;;;;7578347;19;19950;-79
2023/10/08 02:02:05;;;;;;;;;;;17.90;66.60;;;;;;7580102;19;19958;-81
2023/10/08 02:04:38;;;;;;;;;;;17.90;66.40;;;;;;7583519;19;19978;-81
2023/10/08 02:07:12;;;;;;;;;;;18.00;65.60;;;;;;7592206;19;20823;-79
2023/10/08 02:09:45;;;;;;;;;;;18.00;66.00;;;;;;7586274;19;19951;-80
2023/10/08 02:12:17;;;;;;;;;;;18.00;65.50;;;;;;7591291;19;19926;-80
2023/10/08 02:14:52;;;;;;;;;;;18.00;65.40;;;;;;7596526;19;19950;-81
2023/10/08 02:17:24;;;;;;;;;;;18.00;65.10;;;;;;7596164;19;19926;-81
2023/10/08 02:19:56;;;;;;;;;;;18.00;65.00;;;;;;7583206;19;19914;-79
2023/10/08 02:22:32;;;;;;;;;;;18.00;64.70;;;;;;7569375;19;19938;-80
2023/10/08 02:25:11;;;;;;;;;;;18.00;64.70;;;;;;7580998;19;19922;-81
2023/10/08 02:27:43;;;;;;;;;;;18.20;64.70;;;;;;7577262;19;19925;-81
2023/10/08 02:30:17;;;;;;;;;;;17.90;65.30;;;;;;7595836;19;19959;-79
2023/10/08 02:32:51;;;;;;;;;;;18.00;64.50;;;;;;7580840;19;19975;-81
2023/10/08 02:35:23;;;;;;;;;;;18.10;64.20;;;;;;7595871;19;19930;-79
2023/10/08 02:37:55;;;;;;;;;;;18.10;63.90;;;;;;7567445;19;19927;-79
2023/10/08 02:40:28;;;;;;;;;;;18.20;64.00;;;;;;7582026;19;19910;-79
2023/10/08 02:43:00;;;;;;;;;;;18.10;63.80;;;;;;7589417;19;19924;-79
2023/10/08 02:45:37;;;;;;;;;;;18.10;64.00;;;;;;7594254;19;19937;-80
2023/10/08 02:48:12;;;;;;;;;;;18.10;63.60;;;;;;7579478;19;20321;-80
2023/10/08 02:50:46;;;;;;;;;;;18.20;63.80;;;;;;7585106;19;19922;-80
2023/10/08 02:53:20;;;;;;;;;;;18.10;63.80;;;;;;7589575;19;20395;-79
2023/10/08 02:55:53;;;;;;;;;;;18.10;63.70;;;;;;7588818;19;19918;-81
2023/10/08 02:58:27;;;;;;;;;;;18.10;63.40;;;;;;7590612;19;22778;-79
2023/10/08 03:01:00;;;;;;;;;;;17.80;63.40;;;;;;7595280;19;19958;-79
2023/10/08 03:03:32;;;;;;;;;;;18.00;63.40;;;;;;7581702;19;19919;-80
2023/10/08 03:06:11;;;;;;;;;;;18.10;63.10;;;;;;7546075;19;20013;-80
2023/10/08 03:08:43;;;;;;;;;;;18.10;63.40;;;;;;7581520;19;19934;-79
2023/10/08 03:11:16;;;;;;;;;;;18.20;63.00;;;;;;7608400;19;20410;-82
2023/10/08 03:13:52;;;;;;;;;;;18.00;62.70;;;;;;7586078;19;19919;-81
2023/10/08 03:16:28;;;;;;;;;;;18.10;62.70;;;;;;7599523;19;19937;-79
2023/10/08 03:19:01;;;;;;;;;;;18.10;62.50;;;;;;7596234;19;20011;-80
2023/10/08 03:24:29;;;;;;;;;;;18.30;63.10;;;;;;7594435;19;20775;-80
2023/10/08 03:27:20;;;;;;;;;;;18.10;63.30;;;;;;7582644;19;20048;-78
2023/10/08 03:29:54;;;;;;;;;;;18.10;63.10;;;;;;7574226;19;19957;-80
2023/10/08 03:32:27;;;;;;;;;;;18.00;63.50;;;;;;7595392;19;19915;-79
2023/10/08 03:35:00;;;;;;;;;;;18.10;64.20;;;;;;7589830;19;19922;-81
2023/10/08 03:37:41;;;;;;;;;;;18.00;64.20;;;;;;7594091;19;19950;-78
2023/10/08 03:40:25;;;;;;;;;;;17.90;64.10;;;;;;7583216;19;19929;-80
2023/10/08 03:42:57;;;;;;;;;;;17.90;64.30;;;;;;7597847;19;19915;-81
2023/10/08 03:45:51;;;;;;;;;;;17.90;64.60;;;;;;7595407;19;20399;-79
2023/10/08 03:48:25;;;;;;;;;;;17.90;65.00;;;;;;7598704;19;19930;-79
2023/10/08 03:51:06;;;;;;;;;;;18.00;65.00;;;;;;7589391;19;19914;-80
2023/10/08 03:56:36;;;;;;;;;;;18.00;65.50;;;;;;7593392;19;19922;-79
2023/10/08 03:59:29;;;;;;;;;;;18.20;65.50;;;;;;7586519;19;19998;-80
2023/10/08 04:02:15;;;;;;;;;;;17.90;65.80;;;;;;7578994;19;19944;-83
2023/10/08 04:04:51;;;;;;;;;;;17.80;66.20;;;;;;7602834;19;19914;-78
2023/10/08 04:07:24;;;;;;;;;;;17.80;65.90;;;;;;7604413;19;19927;-81
2023/10/08 04:12:48;;;;;;;;;;;17.70;67.30;;;;;;7595425;19;20479;-81
2023/10/08 04:15:21;;;;;;;;;;;17.80;67.00;;;;;;7603422;19;20337;-80
2023/10/08 04:17:53;;;;;;;;;;;17.60;67.20;;;;;;7584365;19;19918;-81
2023/10/08 04:20:38;;;;;;;;;;;17.60;68.90;;;;;;7600479;19;19925;-80
2023/10/08 04:23:18;;;;;;;;;;;17.60;68.70;;;;;;7593939;19;19927;-82
2023/10/08 04:25:54;;;;;;;;;;;17.40;69.50;;;;;;7589379;19;19922;-81
2023/10/08 04:28:34;;;;;;;;;;;17.60;70.10;;;;;;7595057;19;19918;-81
2023/10/08 04:31:15;;;;;;;;;;;17.50;70.00;;;;;;7587669;19;19956;-81
2023/10/08 04:33:48;;;;;;;;;;;17.50;71.40;;;;;;7600804;19;19935;-80
2023/10/08 04:36:20;;;;;;;;;;;17.50;70.80;;;;;;7591044;19;19971;-80
2023/10/08 04:38:54;;;;;;;;;;;17.40;73.20;;;;;;7596691;19;19930;-80
2023/10/08 04:41:28;;;;;;;;;;;17.40;71.80;;;;;;7592715;19;19931;-81
2023/10/08 04:44:07;;;;;;;;;;;17.40;72.10;;;;;;7596265;19;19918;-80
2023/10/08 04:46:46;;;;;;;;;;;17.40;72.00;;;;;;7597927;19;19942;-81
2023/10/08 04:49:28;;;;;;;;;;;17.30;72.20;;;;;;7588263;19;20170;-81
2023/10/08 04:52:14;;;;;;;;;;;17.30;72.00;;;;;;7592825;19;19925;-80
2023/10/08 04:54:51;;;;;;;;;;;17.30;72.30;;;;;;7590763;19;19919;-81
2023/10/08 04:57:25;;;;;;;;;;;17.50;72.20;;;;;;7580850;19;19923;-82
2023/10/08 05:00:02;;;;;;;;;;;17.20;71.30;;;;;;7579126;19;20371;-81
2023/10/08 05:02:50;;;;;;;;;;;17.30;72.20;;;;;;7586496;19;19934;-80
2023/10/08 05:05:23;;;;;;;;;;;17.40;72.90;;;;;;7585456;19;19948;-79
2023/10/08 05:08:01;;;;;;;;;;;17.30;72.90;;;;;;7583594;19;19911;-80
2023/10/08 05:10:54;;;;;;;;;;;17.30;73.90;;;;;;7595255;19;20400;-80
2023/10/08 05:13:32;;;;;;;;;;;17.20;75.30;;;;;;7591154;19;19919;-80
2023/10/08 05:16:29;;;;;;;;;;;17.10;75.90;;;;;;7582814;19;19919;-81
2023/10/08 05:19:24;;;;;;;;;;;17.40;76.40;;;;;;7585514;19;19925;-80
2023/10/08 05:22:17;;;;;;;;;;;17.00;77.80;;;;;;7584537;19;20021;-80
2023/10/08 05:33:24;;;;;;;;;;;16.90;80.80;;;;;;7579118;19;21783;-80
2023/10/08 05:36:09;;;;;;;;;;;17.20;81.90;;;;;;7583153;19;19922;-81
2023/10/08 05:38:49;;;;;;;;;;;16.80;81.80;;;;;;7587635;19;19922;-81
2023/10/08 05:41:28;;;;;;;;;;;16.90;82.10;;;;;;7590078;19;20559;-81
2023/10/08 05:44:24;;;;;;;;;;;16.60;81.40;;;;;;7579627;19;19923;-80
2023/10/08 05:54:45;;;;;;;;;;;16.50;84.90;;;;;;7574361;19;19919;-80
2023/10/08 05:57:46;;;;;;;;;;;16.40;84.30;;;;;;7561723;19;19925;-81
2023/10/08 06:00:30;;;;;;;;;;;16.60;85.40;;;;;;7556395;19;19989;-79
2023/10/08 06:03:59;;;;;;;;;;;16.50;86.00;;;;;;7569802;19;20246;-81
2023/10/08 06:06:36;;;;;;;;;;;16.50;85.40;;;;;;7539820;19;19973;-80
2023/10/08 06:09:21;;;;;;;;;;;16.50;84.10;;;;;;7571206;19;19921;-79
2023/10/08 06:12:06;;;;;;;;;;;16.50;83.70;;;;;;7556057;19;20270;-79
2023/10/08 06:20:25;;;;;;;;;;;16.70;82.20;;;;;;7564727;19;19918;-79
2023/10/08 06:23:03;;;;;;;;;;;16.80;79.20;;;;;;7568598;19;19925;-80
2023/10/08 06:25:44;;;;;;;;;;;16.90;82.70;;;;;;7578149;19;19910;-80
2023/10/08 06:28:21;;;;;;;;;;;16.90;83.40;;;;;;7588686;19;19919;-82
2023/10/08 06:30:55;;;;;;;;;;;17.00;83.50;;;;;;7568594;19;19929;-81
2023/10/08 06:33:30;;;;;;;;;;;17.00;84.30;;;;;;7594660;19;19922;-80
2023/10/08 06:36:13;;;;;;;;;;;17.30;80.80;;;;;;7575429;19;19935;-80
2023/10/08 06:38:49;;;;;;;;;;;17.10;81.60;;;;;;7559466;19;19911;-80
2023/10/08 06:41:28;;;;;;;;;;;17.20;82.20;;;;;;7558063;19;19914;-79
2023/10/08 06:44:22;;;;;;;;;;;17.20;79.30;;;;;;7585235;19;19919;-79
2023/10/08 06:46:58;;;;;;;;;;;17.30;76.70;;;;;;7594279;19;19943;-79
2023/10/08 06:49:31;;;;;;;;;;;17.30;78.10;;;;;;7586808;19;19927;-79
2023/10/08 06:52:04;;;;;;;;;;;17.30;75.00;;;;;;7582494;19;19919;-80
2023/10/08 06:54:36;;;;;;;;;;;17.30;74.20;;;;;;7583900;19;19925;-79
2023/10/08 06:57:13;;;;;;;;;;;17.40;74.20;;;;;;7558172;19;20461;-79
2023/10/08 06:59:50;;;;;;;;;;;17.40;74.30;;;;;;7573033;19;19943;-78
2023/10/08 07:02:22;;;;;;;;;;;17.50;74.70;;;;;;7581499;19;19914;-78
2023/10/08 07:04:54;;;;;;;;;;;17.50;75.20;;;;;;7567036;19;19922;-79
2023/10/08 07:07:31;;;;;;;;;;;18.20;76.20;;;;;;7577798;19;19926;-79
2023/10/08 07:10:04;;;;;;;;;;;17.60;74.60;;;;;;7567771;19;19930;-80
2023/10/08 07:12:36;;;;;;;;;;;17.60;74.60;;;;;;7577378;19;19942;-80
2023/10/08 07:15:12;;;;;;;;;;;17.70;73.20;;;;;;7593052;19;20218;-79
2023/10/08 07:17:44;;;;;;;;;;;17.90;72.00;;;;;;7605464;19;21361;-80
2023/10/08 07:20:20;;;;;;;;;;;18.10;72.10;;;;;;7587385;19;19919;-79
2023/10/08 07:22:56;;;;;;;;;;;18.30;71.30;;;;;;7593644;19;20975;-79
2023/10/08 07:25:35;;;;;;;;;;;18.40;71.60;;;;;;7581046;19;19922;-79
2023/10/08 07:28:12;;;;;;;;;;;18.40;72.70;;;;;;7583582;19;19931;-79
2023/10/08 07:30:44;;;;;;;;;;;18.40;72.30;;;;;;7565013;19;19915;-81
2023/10/08 07:33:24;;;;;;;;;;;18.50;72.20;;;;;;7582338;19;19934;-79
2023/10/08 07:35:57;;;;;;;;;;;18.50;73.80;;;;;;7581115;19;19920;-79
2023/10/08 07:38:33;;;;;;;;;;;18.60;72.30;;;;;;7570752;19;19923;-79
2023/10/08 07:41:05;;;;;;;;;;;18.70;72.90;;;;;;7575532;19;19918;-81
2023/10/08 07:43:38;;;;;;;;;;;18.80;72.90;;;;;;7589427;19;19910;-80
2023/10/08 07:46:10;;;;;;;;;;;19.00;71.50;;;;;;7587589;19;19919;-79
2023/10/08 07:48:42;;;;;;;;;;;19.20;72.50;;;;;;7589216;19;19922;-79
2023/10/08 07:51:15;;;;;;;;;;;19.30;71.20;;;;;;7587261;19;20517;-79
2023/10/08 07:53:48;;;;;;;;;;;19.30;71.50;;;;;;7557438;19;20124;-78
2023/10/08 07:56:20;;;;;;;;;;;19.30;71.20;;;;;;7600645;19;19954;-80
2023/10/08 07:58:56;;;;;;;;;;;19.40;72.20;;;;;;7601409;19;19914;-80
2023/10/08 08:01:29;;;;;;;;;;;19.50;72.50;;;;;;7591935;19;20022;-81
2023/10/08 08:04:03;;;;;;;;;;;19.40;70.20;;;;;;7578070;19;19922;-80
2023/10/08 08:06:38;;;;;;;;;;;19.40;72.00;;;;;;7592713;19;19923;-81
2023/10/08 08:09:18;;;;;;;;;;;19.70;72.70;;;;;;7576906;19;20681;-83
2023/10/08 08:11:51;;;;;;;;;;;19.40;73.40;;;;;;7595657;19;19923;-81
2023/10/08 08:14:24;;;;;;;;;;;19.50;72.70;;;;;;7569385;19;19986;-80
2023/10/08 08:17:13;;;;;;;;;;;19.30;73.70;;;;;;7589567;19;19929;-81
2023/10/08 08:19:50;;;;;;;;;;;19.30;72.10;;;;;;7583504;19;19918;-81
2023/10/08 08:22:22;;;;;;;;;;;19.40;71.70;;;;;;7568026;19;19926;-80
2023/10/08 08:25:05;;;;;;;;;;;19.40;71.90;;;;;;7567436;19;19957;-80
2023/10/08 08:27:38;;;;;;;;;;;19.40;71.20;;;;;;7562047;19;20727;-81
2023/10/08 08:30:17;;;;;;;;;;;19.50;71.60;;;;;;7547554;19;20949;-81
2023/10/08 08:32:49;;;;;;;;;;;19.50;72.90;;;;;;7585469;19;19969;-81
2023/10/08 08:35:25;;;;;;;;;;;19.50;70.60;;;;;;7578625;19;19974;-81
2023/10/08 08:37:57;;;;;;;;;;;19.60;71.60;;;;;;7579656;19;19919;-81
2023/10/08 08:40:29;;;;;;;;;;;19.60;72.80;;;;;;7575286;19;21374;-80
2023/10/08 08:43:05;;;;;;;;;;;19.80;74.10;;;;;;7568311;19;21633;-78
2023/10/08 08:45:40;;;;;;;;;;;19.60;73.10;;;;;;7567742;19;19919;-81
2023/10/08 08:48:14;;;;;;;;;;;19.60;73.80;;;;;;7573454;19;19918;-81
2023/10/08 08:50:48;;;;;;;;;;;19.60;72.70;;;;;;7581638;19;19926;-81
2023/10/08 08:53:22;;;;;;;;;;;19.60;73.00;;;;;;7578211;19;19961;-81
2023/10/08 08:55:55;;;;;;;;;;;19.50;72.60;;;;;;7582127;19;19915;-80
2023/10/08 08:58:27;;;;;;;;;;;19.50;73.20;;;;;;7578416;19;19935;-81
2023/10/08 09:01:03;;;;;;;;;;;19.60;73.30;;;;;;7592233;19;19966;-81
2023/10/08 09:03:37;;;;;;;;;;;19.60;73.60;;;;;;7582720;19;20372;-80
2023/10/08 09:06:11;;;;;;;;;;;19.60;72.20;;;;;;7536437;19;19939;-81
2023/10/08 09:08:45;;;;;;;;;;;19.60;72.20;;;;;;7572901;19;19922;-80
2023/10/08 09:11:18;;;;;;;;;;;19.60;72.00;;;;;;7557150;19;19925;-80
2023/10/08 09:13:52;;;;;;;;;;;19.60;72.20;;;;;;7553433;19;19926;-80
2023/10/08 09:16:24;;;;;;;;;;;19.80;72.00;;;;;;7568563;19;21175;-81
2023/10/08 09:18:56;;;;;;;;;;;19.70;71.70;;;;;;7572134;19;20388;-80
2023/10/08 09:21:30;;;;;;;;;;;19.90;71.40;;;;;;7583211;19;19914;-81
2023/10/08 09:24:08;;;;;;;;;;;19.90;71.40;;;;;;7555711;19;20948;-82
2023/10/08 09:26:45;;;;;;;;;;;20.10;71.20;;;;;;7593911;19;19941;-80
2023/10/08 09:29:18;;;;;;;;;;;20.10;72.40;;;;;;7608343;19;20678;-81
2023/10/08 09:31:55;;;;;;;;;;;20.10;72.10;;;;;;7594418;19;19915;-81
2023/10/08 09:34:30;;;;;;;;;;;20.10;72.00;;;;;;7596456;19;19914;-79
2023/10/08 09:37:03;;;;;;;;;;;20.10;73.00;;;;;;7600597;19;19915;-80
2023/10/08 09:39:36;;;;;;;;;;;20.00;74.20;;;;;;7568039;19;20285;-78
2023/10/08 09:42:11;;;;;;;;;;;20.10;73.90;;;;;;7563032;19;19926;-78
2023/10/08 09:44:44;;;;;;;;;;;20.10;74.10;;;;;;7566948;19;19919;-78
2023/10/08 09:47:21;;;;;;;;;;;20.10;75.10;;;;;;7570436;19;19930;-78
2023/10/08 09:49:56;;;;;;;;;;;20.10;73.30;;;;;;7556618;19;20215;-77
2023/10/08 09:52:33;;;;;;;;;;;20.20;75.30;;;;;;7562312;19;20996;-80
2023/10/08 09:55:10;;;;;;;;;;;20.30;74.70;;;;;;7562823;19;20537;-79
2023/10/08 09:57:42;;;;;;;;;;;20.40;75.00;;;;;;7557440;19;19917;-77
2023/10/08 10:00:15;;;;;;;;;;;;;;;;;;7533247;19;19925;-78
2023/10/08 10:02:47;;;;;;;;;;;20.50;74.40;;;;;;7564311;19;19926;-79
2023/10/08 10:05:24;;;;;;;;;;;20.70;74.90;;;;;;7538097;19;19955;-79
2023/10/08 10:07:56;;;;;;;;;;;20.90;73.50;;;;;;7557310;19;20596;-80
2023/10/08 10:10:34;;;;;;;;;;;21.00;72.00;;;;;;7552448;19;20534;-78
2023/10/08 10:13:09;;;;;;;;;;;21.10;72.50;;;;;;7526947;19;19919;-79
2023/10/08 10:15:42;;;;;;;;;;;21.10;72.60;;;;;;7517870;19;19927;-78
2023/10/08 10:18:21;;;;;;;;;;;21.20;74.10;;;;;;7554601;19;19929;-78
2023/10/08 10:21:00;;;;;;;;;;;21.20;73.00;;;;;;7575203;19;19957;-78
2023/10/08 10:23:40;;;;;;;;;;;21.10;71.80;;;;;;7558500;19;19915;-79
2023/10/08 10:26:24;;;;;;;;;;;21.20;72.70;;;;;;7566834;19;19922;-79
2023/10/08 10:29:14;;;;;;;;;;;21.30;73.80;;;;;;7561108;19;19934;-79
2023/10/08 10:31:48;;;;;;;;;;;21.20;73.10;;;;;;7559544;19;19942;-80
2023/10/08 10:34:23;;;;;;;;;;;21.20;73.80;;;;;;7564837;19;20478;-78
2023/10/08 10:36:58;;;;;;;;;;;20.90;72.90;;;;;;7556179;19;19918;-79
2023/10/08 10:39:33;;;;;;;;;;;21.10;74.40;;;;;;7543529;19;19949;-79
2023/10/08 10:42:20;;;;;;;;;;;21.00;73.20;;;;;;7554535;19;19963;-78
2023/10/08 10:44:53;;;;;;;;;;;21.00;73.00;;;;;;7554424;19;19918;-79
2023/10/08 10:47:42;;;;;;;;;;;21.00;73.70;;;;;;7569647;19;19935;-79
2023/10/08 10:50:31;;;;;;;;;;;20.90;75.80;;;;;;7567825;19;19917;-79
2023/10/08 10:53:11;;;;;;;;;;;20.90;74.10;;;;;;7567958;19;19923;-78
2023/10/08 10:55:59;;;;;;;;;;;20.80;74.70;;;;;;7572874;19;19961;-78
2023/10/08 10:58:38;;;;;;;;;;;20.80;74.20;;;;;;7575230;19;20521;-79
2023/10/08 11:01:26;;;;;;;;;;;20.80;76.10;;;;;;7571100;19;19926;-80
2023/10/08 11:03:58;;;;;;;;;;;20.80;75.80;;;;;;7575214;19;21004;-78
2023/10/08 11:06:33;;;;;;;;;;;20.70;76.60;;;;;;7577315;19;19918;-78
2023/10/08 11:09:05;;;;;;;;;;;20.70;75.40;;;;;;7554814;19;19911;-79
2023/10/08 11:11:43;;;;;;;;;;;20.70;75.80;;;;;;7566387;19;20427;-78
2023/10/08 11:14:18;;;;;;;;;;;20.70;75.90;;;;;;7565253;19;20313;-79
2023/10/08 11:16:51;;;;;;;;;;;20.70;76.70;;;;;;7589139;19;19919;-77
2023/10/08 11:19:23;;;;;;;;;;;20.60;75.70;;;;;;7587595;19;20062;-77
2023/10/08 11:21:55;;;;;;;;;;;20.70;75.60;;;;;;7594910;19;19923;-78
2023/10/08 11:24:28;;;;;;;;;;;20.60;75.60;;;;;;7586490;19;19910;-77
2023/10/08 11:27:15;;;;;;;;;;;20.60;76.10;;;;;;7581175;19;19911;-77
2023/10/08 11:29:56;;;;;;;;;;;20.60;76.00;;;;;;7587356;19;19929;-77
2023/10/08 11:32:32;;;;;;;;;;;20.60;76.60;;;;;;7580893;19;20934;-77
2023/10/08 11:35:15;;;;;;;;;;;20.60;76.50;;;;;;7572969;19;19948;-76
2023/10/08 11:37:50;;;;;;;;;;;20.60;77.40;;;;;;7580346;19;19915;-77
2023/10/08 11:40:48;;;;;;;;;;;20.60;77.10;;;;;;7583135;19;19929;-77
2023/10/08 11:43:22;;;;;;;;;;;20.60;78.60;;;;;;7576367;19;20609;-77
2023/10/08 11:45:54;;;;;;;;;;;20.60;79.10;;;;;;7587642;19;20261;-77
2023/10/08 11:48:28;;;;;;;;;;;20.50;79.30;;;;;;7563910;19;19929;-77
2023/10/08 11:51:04;;;;;;;;;;;20.50;81.00;;;;;;7557830;19;19918;-77
2023/10/08 11:53:37;;;;;;;;;;;20.50;79.20;;;;;;7571807;19;19933;-77
2023/10/08 11:56:13;;;;;;;;;;;20.50;78.60;;;;;;7564565;19;19925;-77
2023/10/08 11:58:45;;;;;;;;;;;20.60;78.30;;;;;;7542963;19;19994;-77
2023/10/08 12:01:17;;;;;;;;;;;20.60;78.40;;;;;;7559915;19;20616;-77
2023/10/08 12:03:50;;;;;;;;;;;20.60;78.10;;;;;;7585600;19;19922;-77
2023/10/08 12:06:24;;;;;;;;;;;20.70;79.00;;;;;;7577455;19;19925;-77
2023/10/08 12:08:58;;;;;;;;;;;20.60;78.50;;;;;;7558668;19;20329;-77
2023/10/08 12:11:34;;;;;;;;;;;20.70;78.30;;;;;;7565711;19;19910;-77
2023/10/08 12:14:06;;;;;;;;;;;20.70;77.90;;;;;;7567422;19;20306;-77
2023/10/08 12:16:40;;;;;;;;;;;20.90;78.40;;;;;;7563181;19;19927;-77
2023/10/08 12:19:15;;;;;;;;;;;20.70;78.30;;;;;;7560674;19;19926;-79
2023/10/08 12:21:48;;;;;;;;;;;20.70;77.90;;;;;;7564644;19;19919;-78
2023/10/08 12:24:20;;;;;;;;;;;20.70;77.70;;;;;;7556833;19;19925;-78
2023/10/08 12:26:52;;;;;;;;;;;20.80;77.70;;;;;;7561931;19;19922;-78
2023/10/08 12:29:25;;;;;;;;;;;20.70;79.30;;;;;;7558906;19;19923;-78
2023/10/08 12:31:59;;;;;;;;;;;20.70;79.10;;;;;;7569912;19;20726;-77
2023/10/08 12:34:35;;;;;;;;;;;20.60;79.10;;;;;;7562452;19;19915;-77
2023/10/08 12:37:07;;;;;;;;;;;20.60;79.40;;;;;;7577060;19;20242;-79
2023/10/08 12:39:56;;;;;;;;;;;20.60;78.80;;;;;;7519339;19;19914;-77
2023/10/08 12:42:30;;;;;;;;;;;20.30;78.80;;;;;;7558426;19;19943;-80
2023/10/08 12:45:02;;;;;;;;;;;20.50;78.50;;;;;;7562790;19;19927;-78
2023/10/08 12:47:36;;;;;;;;;;;20.50;78.10;;;;;;7554982;19;19918;-78
2023/10/08 12:50:09;;;;;;;;;;;20.50;78.90;;;;;;7568584;19;21125;-80
2023/10/08 12:52:47;;;;;;;;;;;20.40;79.30;;;;;;7556135;19;19949;-80
2023/10/08 12:55:23;;;;;;;;;;;20.40;80.40;;;;;;7578339;19;19914;-80
2023/10/08 12:58:03;;;;;;;;;;;20.40;78.70;;;;;;7568303;19;19914;-79
2023/10/08 13:00:37;;;;;;;;;;;20.40;80.40;;;;;;7557867;19;19930;-80
2023/10/08 13:03:15;;;;;;;;;;;20.40;79.30;;;;;;7588136;19;19919;-80
2023/10/08 13:05:52;;;;;;;;;;;20.40;79.10;;;;;;7558914;19;20827;-79
2023/10/08 13:08:27;;;;;;;;;;;20.40;79.20;;;;;;7565215;19;21022;-79
2023/10/08 13:11:02;;;;;;;;;;;20.40;78.60;;;;;;7573548;19;19925;-79
2023/10/08 13:13:36;;;;;;;;;;;20.40;78.30;;;;;;7587717;19;19986;-79
2023/10/08 13:16:08;;;;;;;;;;;20.40;78.40;;;;;;7555098;19;19911;-78
2023/10/08 13:18:43;;;;;;;;;;;20.30;78.50;;;;;;7593367;19;20817;-79
2023/10/08 13:21:15;;;;;;;;;;;20.40;78.10;;;;;;7562279;19;19918;-79
2023/10/08 13:23:49;;;;;;;;;;;20.40;79.60;;;;;;7550944;19;20015;-78
2023/10/08 13:26:24;;;;;;;;;;;20.40;79.00;;;;;;7564894;19;19925;-78
2023/10/08 13:28:58;;;;;;;;;;;20.40;80.30;;;;;;7558537;19;19933;-77
2023/10/08 13:31:30;;;;;;;;;;;20.40;79.80;;;;;;7557446;19;19948;-78
2023/10/08 13:34:08;;;;;;;;;;;20.50;79.70;;;;;;7556923;19;19921;-77
2023/10/08 13:36:42;;;;;;;;;;;20.50;79.30;;;;;;7541792;19;19922;-80
2023/10/08 13:39:18;;;;;;;;;;;20.60;78.40;;;;;;7531650;19;21765;-78
2023/10/08 13:41:52;;;;;;;;;;;20.60;78.00;;;;;;7569728;19;19929;-78
2023/10/08 13:44:28;;;;;;;;;;;20.70;78.70;;;;;;7572944;19;19915;-77
2023/10/08 13:47:05;;;;;;;;;;;20.70;80.30;;;;;;7568840;19;19970;-78
2023/10/08 13:49:40;;;;;;;;;;;20.70;80.20;;;;;;7562693;19;20470;-76
2023/10/08 13:52:13;;;;;;;;;;;20.70;79.50;;;;;;7566511;19;19990;-78
2023/10/08 13:54:51;;;;;;;;;;;20.80;79.50;;;;;;7539967;19;19946;-79
2023/10/08 13:57:26;;;;;;;;;;;20.80;79.50;;;;;;7528584;19;19915;-78
2023/10/08 14:00:00;;;;;;;;;;;20.80;78.70;;;;;;7572512;19;19930;-79
2023/10/08 14:02:35;;;;;;;;;;;20.80;78.40;;;;;;7567214;19;19933;-77
2023/10/08 14:05:08;;;;;;;;;;;20.70;80.70;;;;;;7582794;19;20407;-79
2023/10/08 14:07:44;;;;;;;;;;;20.70;79.70;;;;;;7591135;19;19937;-77
2023/10/08 14:10:18;;;;;;;;;;;20.70;79.70;;;;;;7600314;19;19918;-78
2023/10/08 14:12:50;;;;;;;;;;;20.60;81.90;;;;;;7585696;19;20782;-78
2023/10/08 14:15:23;;;;;;;;;;;20.70;79.90;;;;;;7596211;19;19915;-77
2023/10/08 14:17:58;;;;;;;;;;;20.70;81.40;;;;;;7589560;19;19918;-80
2023/10/08 14:20:31;;;;;;;;;;;20.80;80.80;;;;;;7594595;19;19930;-78
2023/10/08 14:23:04;;;;;;;;;;;20.80;80.10;;;;;;7583309;19;19914;-78
2023/10/08 14:25:44;;;;;;;;;;;20.70;79.20;;;;;;7595053;19;20503;-77
2023/10/08 14:28:23;;;;;;;;;;;20.70;80.10;;;;;;7582173;19;19925;-78
2023/10/08 14:30:56;;;;;;;;;;;20.70;80.50;;;;;;7594946;19;20313;-78
2023/10/08 14:33:32;;;;;;;;;;;20.70;79.70;;;;;;7569273;19;20317;-78
2023/10/08 14:44:37;;;;;;;;;;;20.60;82.20;;;;;;7579431;19;19929;-78
2023/10/08 14:47:09;;;;;;;;;;;20.50;80.40;;;;;;7581037;19;19918;-78
2023/10/08 14:49:43;;;;;;;;;;;20.60;80.10;;;;;;7569065;19;20061;-76
2023/10/08 14:52:16;;;;;;;;;;;20.60;79.80;;;;;;7577545;19;19928;-76
2023/10/08 14:54:51;;;;;;;;;;;20.60;79.80;;;;;;7584155;19;21315;-78
2023/10/08 14:57:26;;;;;;;;;;;20.60;80.80;;;;;;7585992;19;19933;-77
2023/10/08 14:59:58;;;;;;;;;;;20.60;81.50;;;;;;7578121;19;19929;-76
2023/10/08 15:02:30;;;;;;;;;;;20.50;82.40;;;;;;7574920;19;19933;-75
2023/10/08 15:05:05;;;;;;;;;;;20.50;81.30;;;;;;7565467;19;20841;-76
2023/10/08 15:07:38;;;;;;;;;;;20.40;82.10;;;;;;7591590;19;20266;-78
2023/10/08 15:10:13;;;;;;;;;;;20.50;82.00;;;;;;7579314;19;20357;-77
2023/10/08 15:12:45;;;;;;;;;;;20.40;83.70;;;;;;7570104;19;19932;-77
2023/10/08 15:15:18;;;;;;;;;;;20.40;86.40;;;;;;7566588;19;19922;-77
2023/10/08 15:17:51;;;;;;;;;;;20.30;84.40;;;;;;7557863;19;19926;-76
2023/10/08 15:20:24;;;;;;;;;;;20.30;85.20;;;;;;7574305;19;19918;-75
2023/10/08 15:22:56;;;;;;;;;;;20.40;87.00;;;;;;7571019;19;19952;-77
2023/10/08 15:25:28;;;;;;;;;;;20.20;88.60;;;;;;7563294;19;20407;-76
2023/10/08 15:28:01;;;;;;;;;;;20.10;90.50;;;;;;7567418;19;19923;-78
2023/10/08 15:30:33;;;;;;;;;;;20.00;91.10;;;;;;7577670;19;19922;-79
2023/10/08 15:33:06;;;;;;;;;;;19.90;91.30;;;;;;7589131;19;19907;-79
2023/10/08 15:35:40;;;;;;;;;;;19.90;91.70;;;;;;7591178;19;19961;-78
2023/10/08 15:38:12;;;;;;;;;;;19.80;92.90;;;;;;7599425;19;19919;-77
2023/10/08 15:40:44;;;;;;;;;;;19.70;93.10;;;;;;7439787;19;2963464;-77
2023/10/08 15:43:18;;;;;;;;;;;19.60;92.20;;;;;;7587457;19;19957;-77
2023/10/08 15:45:50;;;;;;;;;;;19.60;92.00;;;;;;7590722;19;19923;-79
2023/10/08 15:48:22;;;;;;;;;;;19.50;92.10;;;;;;7585703;19;19921;-78